Weather History for Shaw AFB, SC

Change the Weather History Date:

Friday, January 10, 2014

  Actual Average Record
Temperature  
Mean Temperature 50 °F -  
Max Temperature 57 °F 55 °F 74 °F (2008)
Min Temperature 44 °F 33 °F 24 °F (2001)
Degree Days  
Heating Degree Days 14    
Moisture  
Dew Point 49 °F    
Average Humidity 94    
Maximum Humidity 100    
Minimum Humidity 71    
Precipitation  
Precipitation 0.58 in - - ()
Sea Level Pressure  
Sea Level Pressure 30.19 in    
Wind  
Wind Speed 6 mph (NE)    
Max Wind Speed 16 mph    
Max Gust Speed -    
Visibility 7 miles    
Events Fog , Rain    
Averages and records for this station are not official NWS values.
T = Trace of Precipitation, MM = Missing Value Source: NWS Daily Summary

Daily Weather History Graph

Daily Weather History Graph

Search for Another Location

Airport:

Trip Planner

Search our weather history database for the weather conditions in past years. The results will help you decide how hot, cold, wet, or windy it might be!

Date:

Astronomy

Jan. 10, 2014 Rise Set
Actual Time 7:27 AM EST 5:31 PM EST
Civil Twilight 7:00 AM EST 5:58 PM EST
Nautical Twilight 6:29 AM EST 6:29 PM EST
Astronomical Twilight 5:59 AM EST 6:59 PM EST
Moon 1:30 PM EST (1/10) 2:38 AM EST (1/10)
Length of Visible Light 10h 58m
Length of Day
10h 03m
Waxing Gibbous, 75% of the Moon is Illuminated
Jan 10
Waxing Gibbous
Jan 15
Full
Jan 24
Last Quarter
Jan 30
New
Feb 6
First Quarter

Hourly Weather History & Observations

Time (EST) Temp. Windchill Dew Point Humidity Pressure Visibility Wind Dir Wind Speed Gust Speed Precip Events Conditions
12:58 AM 48.2 °F - 39.0 °F 71% 30.36 in 10.0 mi ENE 5.8 mph - N/A   Overcast
1:05 AM 48.2 °F - 39.2 °F 71% 30.35 in 10.0 mi ENE 4.6 mph - N/A   Light Drizzle
1:21 AM 48.2 °F - 41.0 °F 76% 30.34 in 10.0 mi NE 6.9 mph - N/A   Overcast
1:29 AM 48.2 °F - 41.0 °F 76% 30.33 in 10.0 mi NE 6.9 mph - N/A Rain Light Rain
1:42 AM 46.4 °F 42.9 °F 41.0 °F 81% 30.33 in 10.0 mi NE 6.9 mph - N/A   Overcast
1:58 AM 46.9 °F - 41.5 °F 81% 30.34 in 10.0 mi NNE 6.9 mph - 0.00 in   Overcast
2:58 AM 46.6 °F - 40.1 °F 78% 30.33 in 10.0 mi NE 8.1 mph - N/A   Overcast
3:22 AM 46.4 °F 43.5 °F 39.2 °F 76% 30.31 in 10.0 mi ENE 5.8 mph - N/A   Light Drizzle
3:27 AM 46.4 °F 42.4 °F 41.0 °F 81% 30.31 in 7.0 mi NE 8.1 mph - N/A Rain Light Rain
3:32 AM 46.4 °F 42.9 °F 41.0 °F 81% 30.31 in 5.0 mi NE 6.9 mph - N/A Rain Light Rain
3:42 AM 46.4 °F 42.4 °F 41.0 °F 81% 30.31 in 8.0 mi North 8.1 mph - N/A Rain Light Rain
3:47 AM 46.4 °F 43.5 °F 41.0 °F 81% 30.31 in 10.0 mi North 5.8 mph - N/A Rain Light Rain
3:49 AM 46.4 °F 43.5 °F 41.0 °F 81% 30.31 in 10.0 mi NNE 5.8 mph - N/A   Overcast
3:58 AM 45.7 °F 42.7 °F 41.5 °F 85% 30.30 in 10.0 mi NNE 5.8 mph - 0.02 in   Overcast
4:35 AM 44.6 °F 43.1 °F 42.8 °F 93% 30.29 in 9.0 mi ENE 3.5 mph - N/A Rain Light Rain
4:40 AM 44.6 °F 42.2 °F 42.8 °F 93% 30.29 in 5.0 mi NE 4.6 mph - N/A Rain Heavy Rain
4:45 AM 44.6 °F 42.2 °F 42.8 °F 93% 30.29 in 4.0 mi NNE 4.6 mph - N/A Rain Rain
4:50 AM 44.6 °F 41.4 °F 42.8 °F 93% 30.29 in 6.0 mi North 5.8 mph - N/A Rain Light Rain
4:55 AM 44.6 °F 41.4 °F 42.8 °F 93% 30.29 in 10.0 mi North 5.8 mph - N/A Rain Light Rain
4:58 AM 45.1 °F 41.4 °F 42.6 °F 91% 30.29 in 10.0 mi NNE 6.9 mph - 0.04 in Rain Light Rain
5:09 AM 44.6 °F 41.4 °F 42.8 °F 93% 30.28 in 10.0 mi NNE 5.8 mph - N/A   Overcast
5:14 AM 44.6 °F 41.4 °F 42.8 °F 93% 30.29 in 10.0 mi NNE 5.8 mph - N/A Rain Light Rain
5:29 AM 44.6 °F 42.2 °F 42.8 °F 93% 30.29 in 6.0 mi NE 4.6 mph - N/A Rain Light Rain
5:54 AM 44.6 °F 40.7 °F 42.8 °F 93% 30.27 in 8.0 mi NNE 6.9 mph - N/A Rain Light Rain
5:58 AM 45.0 °F 40.6 °F 43.7 °F 95% 30.27 in 9.0 mi NNE 8.1 mph - 0.01 in Rain Light Rain
6:03 AM 44.6 °F 39.2 °F 42.8 °F 93% 30.27 in 10.0 mi NNE 10.4 mph - N/A   Light Drizzle
6:04 AM 44.6 °F 39.2 °F 42.8 °F 93% 30.27 in 10.0 mi NNE 10.4 mph - N/A   Overcast
6:19 AM 44.6 °F 40.2 °F 44.6 °F 100% 30.27 in 10.0 mi NE 8.1 mph - N/A Rain Light Rain
6:29 AM 44.6 °F 41.4 °F 44.6 °F 100% 30.27 in 9.0 mi ENE 5.8 mph - N/A Rain Light Rain
6:44 AM 46.4 °F 44.3 °F 44.6 °F 93% 30.27 in 5.0 mi NE 4.6 mph - N/A Rain Light Rain
6:49 AM 46.4 °F 45.2 °F 44.6 °F 93% 30.27 in 5.0 mi NNE 3.5 mph - N/A Rain Light Rain
6:54 AM 46.4 °F 43.5 °F 44.6 °F 93% 30.27 in 5.0 mi North 5.8 mph - N/A Rain Rain
6:58 AM 46.4 °F 42.4 °F 44.6 °F 93% 30.27 in 4.0 mi NNE 8.1 mph - 0.04 in Rain Heavy Rain
7:08 AM 46.4 °F 41.9 °F 44.6 °F 93% 30.26 in 6.0 mi NNE 9.2 mph - N/A Rain Light Rain
7:13 AM 46.4 °F 42.4 °F 44.6 °F 93% 30.26 in 10.0 mi NE 8.1 mph - N/A Rain Light Rain
7:15 AM 46.4 °F 42.4 °F 44.6 °F 93% 30.26 in 10.0 mi NE 8.1 mph - N/A   Overcast
7:20 AM 46.4 °F 42.4 °F 44.6 °F 93% 30.27 in 9.0 mi NE 8.1 mph - N/A   Overcast
7:25 AM 46.4 °F 43.5 °F 44.6 °F 93% 30.27 in 9.0 mi NNE 5.8 mph - N/A   Overcast
7:28 AM 46.4 °F 43.5 °F 44.6 °F 93% 30.27 in 9.0 mi North 5.8 mph - N/A Rain Light Rain
7:31 AM 46.4 °F 43.5 °F 44.6 °F 93% 30.28 in 8.0 mi North 5.8 mph - N/A Rain Light Rain
7:41 AM 46.4 °F - 44.6 °F 93% 30.28 in 4.0 mi Variable 2.3 mph - N/A Rain Light Rain
7:46 AM 46.4 °F 43.5 °F 44.6 °F 93% 30.28 in 3.0 mi NE 5.8 mph - N/A Rain Rain
7:51 AM 46.4 °F 43.5 °F 44.6 °F 93% 30.28 in 2.5 mi NE 5.8 mph - N/A Rain Light Rain
7:58 AM 46.8 °F - 45.5 °F 95% 30.29 in 2.0 mi NE 3.5 mph - 0.07 in Rain Light Rain
8:03 AM 46.4 °F 44.3 °F 44.6 °F 93% 30.29 in 4.0 mi NNE 4.6 mph - N/A Rain Light Rain
8:08 AM 46.4 °F 44.3 °F 46.4 °F 100% 30.29 in 4.0 mi NNE 4.6 mph - N/A Rain Light Rain
8:13 AM 46.4 °F - 46.4 °F 100% 30.29 in 4.0 mi NNE 2.3 mph - N/A Rain Light Rain
8:23 AM 46.4 °F 42.4 °F 46.4 °F 100% 30.28 in 5.0 mi NE 8.1 mph - N/A   Light Drizzle
8:28 AM 48.2 °F - 46.4 °F 93% 30.29 in 4.0 mi NE 3.5 mph - N/A Rain Light Rain
8:33 AM 48.2 °F - 46.4 °F 93% 30.29 in 3.0 mi NE 4.6 mph - N/A Rain Light Rain
8:38 AM 48.2 °F - 46.4 °F 93% 30.29 in 3.0 mi NNE 5.8 mph - N/A Rain Rain
8:48 AM 48.2 °F - 46.4 °F 93% 30.29 in 6.0 mi NNE 5.8 mph - N/A Rain Light Rain
8:58 AM 48.2 °F - 47.1 °F 96% 30.29 in 3.0 mi NNW 2.3 mph - 0.06 in Rain Light Rain
9:18 AM 48.2 °F - 48.2 °F 100% 30.28 in 9.0 mi NE 8.1 mph - N/A Rain Light Rain
9:27 AM 50.0 °F - 48.2 °F 94% 30.28 in 10.0 mi NE 8.1 mph - N/A   Overcast
9:42 AM 50.0 °F - 48.2 °F 94% 30.28 in 9.0 mi NE 10.4 mph - N/A   Overcast
9:43 AM 50.0 °F - 48.2 °F 94% 30.28 in 9.0 mi NE 9.2 mph - N/A Rain Light Rain
9:53 AM 50.0 °F - 48.2 °F 94% 30.28 in 9.0 mi NE 8.1 mph - N/A   Overcast
9:58 AM 49.8 °F - 48.6 °F 95% 30.29 in 10.0 mi NE 6.9 mph - 0.00 in   Mostly Cloudy
9:59 AM 50.0 °F - 48.2 °F 94% 30.28 in 10.0 mi ENE 6.9 mph - N/A   Overcast
10:14 AM 50.0 °F - 50.0 °F 100% 30.28 in 3.0 mi ENE 6.9 mph - N/A Rain Light Rain
10:58 AM 51.8 °F - 50.0 °F 94% 30.28 in 3.0 mi East 2.3 mph - 0.02 in   Light Drizzle
11:43 AM 51.8 °F - 50.0 °F 94% 30.25 in 2.2 mi West 2.3 mph - N/A Rain Light Rain
11:55 AM 52.7 °F - 51.3 °F 95% 30.24 in 3.0 mi NNE 5.8 mph - 0.02 in Rain Light Rain
12:18 PM 53.6 °F - 51.8 °F 94% 30.20 in 3.0 mi NNE 5.8 mph - N/A   Overcast
12:58 PM 55.4 °F - 53.6 °F 94% 30.19 in 3.0 mi ENE 6.9 mph - 0.00 in   Overcast
1:03 PM 55.4 °F - 53.6 °F 94% 30.17 in 9.0 mi NE 5.8 mph - N/A   Overcast
1:13 PM 55.4 °F - 53.6 °F 94% 30.17 in 9.0 mi NE 4.6 mph - N/A   Overcast
1:27 PM 55.4 °F - 53.6 °F 94% 30.16 in 4.0 mi ENE 3.5 mph - N/A   Overcast
1:58 PM 57.4 °F - 54.5 °F 90% 30.15 in 5.0 mi NE 6.9 mph - N/A   Overcast
2:23 PM 55.4 °F - 53.6 °F 94% 30.14 in 10.0 mi NNE 4.6 mph - N/A   Mostly Cloudy
2:48 PM 55.4 °F - 53.6 °F 94% 30.14 in 10.0 mi NNE 5.8 mph - N/A   Mostly Cloudy
2:49 PM 55.4 °F - 53.6 °F 94% 30.14 in 10.0 mi NNE 5.8 mph - N/A Rain Light Rain
2:51 PM 55.4 °F - 53.6 °F 94% 30.14 in 7.0 mi NNE 5.8 mph - N/A Rain Light Rain
2:58 PM 55.4 °F - 53.6 °F 94% 30.14 in 7.0 mi NNE 8.1 mph - 0.00 in   Overcast
3:29 PM 55.4 °F - 53.6 °F 94% 30.13 in 10.0 mi NNE 6.9 mph - N/A Rain Light Rain
3:37 PM 55.4 °F - 53.6 °F 94% 30.13 in 10.0 mi NE 4.6 mph - N/A Rain Light Rain
3:42 PM 55.4 °F - 53.6 °F 94% 30.14 in 10.0 mi NE 5.8 mph - N/A   Light Drizzle
3:47 PM 55.4 °F - 53.6 °F 94% 30.14 in 10.0 mi NNE 4.6 mph - N/A   Light Drizzle
3:58 PM 55.8 °F - 54.5 °F 96% 30.16 in 10.0 mi NW 5.8 mph - 0.00 in   Light Drizzle
4:18 PM 55.4 °F - 55.4 °F 100% 30.14 in 4.0 mi NNW 5.8 mph - N/A Rain Light Rain
4:23 PM 55.4 °F - 55.4 °F 100% 30.14 in 5.0 mi NNW 4.6 mph - N/A Rain Light Rain
4:43 PM 55.4 °F - 53.6 °F 94% 30.13 in 9.0 mi North 8.1 mph - N/A Rain Light Rain
4:48 PM 55.4 °F - 53.6 °F 94% 30.12 in 10.0 mi NNE 6.9 mph - N/A Rain Light Rain
4:53 PM 55.4 °F - 53.6 °F 94% 30.12 in 10.0 mi NNE 9.2 mph - N/A Rain Light Rain
4:58 PM 54.9 °F - 53.8 °F 96% 30.13 in 10.0 mi NNE 9.2 mph - 0.06 in Rain Light Rain
5:00 PM 55.4 °F - 53.6 °F 94% 30.11 in 10.0 mi NNE 10.4 mph - N/A   Overcast
5:05 PM 55.4 °F - 53.6 °F 94% 30.11 in 10.0 mi NE 9.2 mph - N/A   Overcast
5:06 PM 55.4 °F - 53.6 °F 94% 30.11 in 10.0 mi NE 10.4 mph - N/A Rain Light Rain
5:23 PM 55.4 °F - 53.6 °F 94% 30.10 in 10.0 mi NE 10.4 mph - N/A   Mostly Cloudy
5:28 PM 55.4 °F - 53.6 °F 94% 30.11 in 10.0 mi Variable 5.8 mph - N/A   Overcast
5:31 PM 55.4 °F - 53.6 °F 94% 30.10 in 10.0 mi NE 9.2 mph - N/A Rain Light Rain
5:41 PM 55.4 °F - 53.6 °F 94% 30.10 in 9.0 mi ENE 6.9 mph - N/A   Light Drizzle
5:46 PM 55.4 °F - 53.6 °F 94% 30.10 in 9.0 mi ENE 5.8 mph - N/A   Light Drizzle
5:56 PM 55.4 °F - 53.6 °F 94% 30.10 in 9.0 mi ENE 3.5 mph - N/A Rain Light Rain
5:58 PM 54.5 °F - 53.4 °F 96% 30.11 in 9.0 mi NE 2.3 mph - 0.00 in Rain Light Rain
6:08 PM 53.6 °F - 53.6 °F 100% 30.12 in 9.0 mi West 16.1 mph - N/A Rain Light Rain
6:13 PM 53.6 °F - 51.8 °F 94% 30.13 in 2.5 mi West 12.7 mph - N/A Rain Rain
6:23 PM 51.8 °F - 51.8 °F 100% 30.13 in 8.0 mi WNW 11.5 mph - N/A Rain Light Rain
6:28 PM 51.8 °F - 51.8 °F 100% 30.13 in 10.0 mi WNW 10.4 mph - N/A Rain Light Rain
6:32 PM 51.8 °F - 51.8 °F 100% 30.13 in 10.0 mi NW 5.8 mph - N/A   Overcast
6:37 PM 51.8 °F - 51.8 °F 100% 30.13 in 10.0 mi NW 5.8 mph - N/A   Overcast
6:47 PM 53.6 °F - 51.8 °F 94% 30.12 in 10.0 mi NNE 2.3 mph - N/A   Overcast
6:58 PM 53.2 °F - 51.6 °F 94% 30.13 in 10.0 mi East 1.2 mph - 0.08 in   Overcast
7:13 PM 53.6 °F - 51.8 °F 94% 30.12 in 10.0 mi NE 2.3 mph - N/A   Overcast
7:35 PM 53.6 °F - 51.8 °F 94% 30.12 in 9.0 mi Variable 1.2 mph - N/A   Light Drizzle
7:40 PM 53.6 °F - 51.8 °F 94% 30.12 in 5.0 mi Variable 1.2 mph - N/A Rain Rain
7:45 PM 53.6 °F - 51.8 °F 94% 30.12 in 4.0 mi Variable 2.3 mph - N/A Rain Light Rain
7:50 PM 53.6 °F - 51.8 °F 94% 30.12 in 6.0 mi Calm Calm - N/A Rain Light Rain
7:55 PM 53.6 °F - 51.8 °F 94% 30.12 in 8.0 mi North 2.3 mph - N/A Rain Light Rain
7:58 PM 53.4 °F - 52.3 °F 96% 30.13 in 10.0 mi Calm Calm - 0.01 in Rain Light Rain
8:00 PM 53.6 °F - 53.6 °F 100% 30.12 in 10.0 mi NE 1.2 mph - N/A   Overcast
8:05 PM 53.6 °F - 51.8 °F 94% 30.11 in 10.0 mi NE 2.3 mph - N/A   Overcast
8:08 PM 53.6 °F - 51.8 °F 94% 30.11 in 10.0 mi NNE 1.2 mph - N/A Rain Light Rain
8:13 PM 53.6 °F - 51.8 °F 94% 30.11 in 10.0 mi Calm Calm - N/A Rain Light Rain
8:18 PM 53.6 °F - 51.8 °F 94% 30.11 in 10.0 mi NNE 1.2 mph - N/A   Light Drizzle
8:23 PM 53.6 °F - 51.8 °F 94% 30.11 in 10.0 mi East 1.2 mph - N/A   Overcast
8:25 PM 53.6 °F - 53.6 °F 100% 30.11 in 10.0 mi ENE 1.2 mph - N/A   Light Drizzle
8:26 PM 53.6 °F - 53.6 °F 100% 30.11 in 10.0 mi East 1.2 mph - N/A   Light Drizzle
8:35 PM 53.6 °F - 53.6 °F 100% 30.11 in 10.0 mi East 2.3 mph - N/A   Overcast
8:40 PM 53.6 °F - 53.6 °F 100% 30.11 in 10.0 mi Calm Calm - N/A   Overcast
8:42 PM 53.6 °F - 53.6 °F 100% 30.11 in 9.0 mi Calm Calm - N/A Rain Light Rain
8:47 PM 53.6 °F - 53.6 °F 100% 30.11 in 6.0 mi Calm Calm - N/A Rain Light Rain
8:52 PM 53.6 °F - 53.6 °F 100% 30.10 in 4.0 mi NNE 2.3 mph - N/A Rain Light Rain
8:57 PM 53.6 °F - 53.6 °F 100% 30.10 in 5.0 mi NE 1.2 mph - N/A Rain Light Rain
8:58 PM 53.8 °F - 53.1 °F 97% 30.11 in 5.0 mi NNE 1.2 mph - 0.01 in Rain Light Rain
9:03 PM 53.6 °F - 53.6 °F 100% 30.10 in 3.0 mi Variable 1.2 mph - N/A Rain Light Rain
9:08 PM 53.6 °F - 53.6 °F 100% 30.11 in 1.8 mi WNW 3.5 mph - N/A Rain Light Rain
9:13 PM 53.6 °F - 53.6 °F 100% 30.11 in 2.5 mi West 4.6 mph - N/A Rain Light Rain
9:18 PM 53.6 °F - 53.6 °F 100% 30.11 in 8.0 mi Variable 1.2 mph - N/A   Light Drizzle
9:23 PM 53.6 °F - 53.6 °F 100% 30.11 in 2.5 mi East 6.9 mph - N/A Rain Heavy Rain
9:28 PM 53.6 °F - 53.6 °F 100% 30.10 in 3.0 mi ESE 5.8 mph - N/A Rain Light Rain
9:33 PM 53.6 °F - 53.6 °F 100% 30.11 in 9.0 mi ESE 5.8 mph - N/A Rain Light Rain
9:34 PM 53.6 °F - 53.6 °F 100% 30.11 in 10.0 mi ESE 4.6 mph - N/A   Overcast
9:39 PM 55.4 °F - 53.6 °F 94% 30.10 in 10.0 mi Variable 3.5 mph - N/A   Overcast
9:44 PM 55.4 °F - 53.6 °F 94% 30.10 in 10.0 mi Calm Calm - N/A   Overcast
9:49 PM 55.4 °F - 53.6 °F 94% 30.11 in 10.0 mi Calm Calm - N/A Rain Light Rain
9:58 PM 54.7 °F - 53.8 °F 97% 30.11 in 9.0 mi Calm Calm - 0.14 in Rain Light Rain
10:04 PM 55.4 °F - 53.6 °F 94% 30.10 in 10.0 mi Calm Calm - N/A   Overcast
10:19 PM 55.4 °F - 53.6 °F 94% 30.09 in 10.0 mi Calm Calm - N/A   Overcast
10:34 PM 55.4 °F - 53.6 °F 94% 30.09 in 7.0 mi ENE 3.5 mph - N/A   Overcast
10:39 PM 53.6 °F - 53.6 °F 100% 30.09 in 2.5 mi NE 1.2 mph - N/A   Overcast
10:44 PM 53.6 °F - 53.6 °F 100% 30.08 in 1.2 mi NNE 2.3 mph - N/A   Overcast
10:49 PM 53.6 °F - 53.6 °F 100% 30.08 in 0.8 mi NE 2.3 mph - N/A   Mist
10:58 PM 54.3 °F - 53.4 °F 97% 30.09 in 0.8 mi NE 2.3 mph - 0.00 in   Mist
11:03 PM 53.6 °F - 53.6 °F 100% 30.08 in 0.5 mi NE 2.3 mph - N/A Fog Fog
11:08 PM 53.6 °F - 53.6 °F 100% 30.08 in 0.5 mi ENE 3.5 mph - N/A Fog Fog
11:58 PM 54.0 °F - 53.4 °F 98% 30.06 in 0.8 mi ENE 4.6 mph - N/A   Mist